Time;durP1;ratioP1;P1;durP2;ratioP2;P2;SDS_P1;SDS_P2;PMS_P1;PMS_P2;Temp;Humidity;BMP_temperature;BMP_pressure;BME280_temperature;BME280_humidity;BME280_pressure;Samples;Min_cycle;Max_cycle;Signal;HPM_P1;HPM_P2
2022/03/16 00:02:01;;;;;;;39.42;24.30;;;;;;;;;;6273055;28;20127;-72
2022/03/16 00:05:04;;;;;;;37.80;22.92;;;;;;;;;;6267959;28;20428;-72
2022/03/16 00:08:06;;;;;;;37.53;23.73;;;;;;;;;;6260984;28;20053;-72
2022/03/16 00:11:07;;;;;;;38.10;22.95;;;;;;;;;;6256659;28;20071;-71
2022/03/16 00:14:09;;;;;;;38.38;24.27;;;;;;;;;;6254937;28;20127;-71
2022/03/16 00:17:11;;;;;;;40.67;24.85;;;;;;;;;;6259207;28;20058;-71
2022/03/16 00:20:14;;;;;;;35.90;23.02;;;;;;;;;;6249546;28;20064;-72
2022/03/16 00:23:16;;;;;;;42.47;25.00;;;;;;;;;;6264405;28;20068;-72
2022/03/16 00:26:18;;;;;;;38.45;23.98;;;;;;;;;;6263863;28;20102;-71
2022/03/16 00:29:19;;;;;;;37.10;23.52;;;;;;;;;;6279943;28;20044;-72
2022/03/16 00:32:21;;;;;;;39.75;22.80;;;;;;;;;;6282120;28;20148;-72
2022/03/16 00:35:24;;;;;;;39.75;25.13;;;;;;;;;;6281411;28;20056;-72
2022/03/16 00:38:25;;;;;;;39.00;25.40;;;;;;;;;;6276946;28;20127;-72
2022/03/16 00:41:27;;;;;;;38.15;23.02;;;;;;;;;;6273700;28;20126;-72
2022/03/16 00:44:34;;;;;;;38.30;24.02;;;;;;;;;;6270160;28;20550;-70
2022/03/16 00:47:36;;;;;;;47.60;27.52;;;;;;;;;;6268028;28;20119;-71
2022/03/16 00:50:39;;;;;;;61.22;34.80;;;;;;;;;;6261891;28;20191;-70
2022/03/16 00:53:40;;;;;;;46.72;26.85;;;;;;;;;;6263173;28;20105;-71
2022/03/16 00:56:42;;;;;;;50.92;31.45;;;;;;;;;;6267695;28;20445;-70
2022/03/16 00:59:44;;;;;;;57.63;34.60;;;;;;;;;;6275408;28;20053;-70
2022/03/16 01:02:45;;;;;;;53.50;30.35;;;;;;;;;;6270974;28;20128;-70
2022/03/16 01:05:48;;;;;;;40.53;24.20;;;;;;;;;;6263882;28;20448;-72
2022/03/16 01:08:50;;;;;;;38.17;23.23;;;;;;;;;;6277790;28;20678;-71
2022/03/16 01:11:51;;;;;;;38.15;23.25;;;;;;;;;;6280001;28;20123;-72
2022/03/16 01:14:53;;;;;;;40.60;24.17;;;;;;;;;;6276586;28;20046;-72
2022/03/16 01:17:54;;;;;;;36.03;23.17;;;;;;;;;;6270288;28;20076;-72
2022/03/16 01:20:57;;;;;;;36.38;23.33;;;;;;;;;;6272829;28;20041;-72
2022/03/16 01:23:59;;;;;;;44.72;24.52;;;;;;;;;;6264744;28;20045;-72
2022/03/16 01:27:05;;;;;;;38.08;24.73;;;;;;;;;;6268809;28;20041;-72
2022/03/16 01:30:08;;;;;;;39.08;23.63;;;;;;;;;;6263925;28;20048;-72
2022/03/16 01:33:10;;;;;;;40.65;24.48;;;;;;;;;;6274876;28;20072;-72
2022/03/16 01:36:13;;;;;;;37.95;23.40;;;;;;;;;;6274623;28;20059;-74
2022/03/16 01:39:15;;;;;;;38.30;23.30;;;;;;;;;;6270743;28;20751;-71
2022/03/16 01:42:17;;;;;;;34.00;23.42;;;;;;;;;;6266191;28;20800;-71
2022/03/16 01:45:19;;;;;;;37.60;23.23;;;;;;;;;;6262107;28;20046;-71
2022/03/16 01:48:21;;;;;;;43.13;22.83;;;;;;;;;;6273305;28;20446;-73
2022/03/16 01:51:23;;;;;;;36.22;21.73;;;;;;;;;;6278900;28;20041;-72
2022/03/16 01:54:25;;;;;;;35.85;22.08;;;;;;;;;;6273205;28;20048;-73
2022/03/16 01:57:27;;;;;;;35.20;21.83;;;;;;;;;;6274641;28;20072;-73
2022/03/16 02:00:28;;;;;;;32.70;21.13;;;;;;;;;;6265980;28;20398;-73
2022/03/16 02:03:30;;;;;;;37.25;22.98;;;;;;;;;;6262247;28;20053;-75
2022/03/16 02:06:33;;;;;;;39.10;20.98;;;;;;;;;;6265805;28;20044;-74
2022/03/16 02:09:36;;;;;;;36.78;23.00;;;;;;;;;;6280294;28;20056;-72
2022/03/16 02:12:44;;;;;;;32.50;21.20;;;;;;;;;;6272795;28;20127;-72
2022/03/16 02:15:46;;;;;;;34.17;20.92;;;;;;;;;;6269833;28;20053;-74
2022/03/16 02:18:48;;;;;;;34.00;20.83;;;;;;;;;;6264166;28;20052;-74
2022/03/16 02:21:56;;;;;;;37.97;21.60;;;;;;;;;;6262674;28;20504;-74
2022/03/16 02:24:59;;;;;;;33.08;20.67;;;;;;;;;;6255983;28;20045;-72
2022/03/16 02:28:01;;;;;;;32.80;20.13;;;;;;;;;;6264102;28;20181;-71
2022/03/16 02:31:02;;;;;;;32.17;20.88;;;;;;;;;;6275104;28;20459;-73
2022/03/16 02:34:04;;;;;;;31.65;20.50;;;;;;;;;;6273363;28;20045;-71
2022/03/16 02:37:06;;;;;;;34.00;21.20;;;;;;;;;;6264959;28;20124;-72
2022/03/16 02:40:10;;;;;;;36.05;21.55;;;;;;;;;;6261792;28;20195;-72
2022/03/16 02:43:12;;;;;;;38.42;21.70;;;;;;;;;;6270903;28;20049;-72
2022/03/16 02:46:13;;;;;;;37.08;22.17;;;;;;;;;;6271988;28;20053;-72
2022/03/16 02:49:16;;;;;;;37.78;20.70;;;;;;;;;;6270695;28;20048;-72
2022/03/16 02:52:18;;;;;;;37.20;23.70;;;;;;;;;;6264917;28;20095;-72
2022/03/16 02:55:21;;;;;;;37.67;22.10;;;;;;;;;;6265119;28;20409;-72
2022/03/16 02:58:23;;;;;;;34.83;22.83;;;;;;;;;;6261821;28;20134;-72
2022/03/16 03:01:24;;;;;;;31.38;20.65;;;;;;;;;;6263214;28;20123;-71
2022/03/16 03:04:26;;;;;;;35.55;22.48;;;;;;;;;;6258677;28;20126;-72
2022/03/16 03:07:27;;;;;;;37.03;23.17;;;;;;;;;;6262243;28;20102;-71
2022/03/16 03:10:30;;;;;;;38.30;22.98;;;;;;;;;;6264614;28;20080;-71
2022/03/16 03:13:32;;;;;;;37.97;22.58;;;;;;;;;;6269102;28;20136;-72
2022/03/16 03:16:34;;;;;;;35.03;21.80;;;;;;;;;;6269292;28;20128;-72
2022/03/16 03:19:35;;;;;;;39.92;23.55;;;;;;;;;;6279550;28;20045;-72
2022/03/16 03:22:37;;;;;;;40.53;23.60;;;;;;;;;;6268589;28;20049;-72
2022/03/16 03:25:40;;;;;;;36.05;22.67;;;;;;;;;;6272109;28;20045;-72
2022/03/16 03:28:41;;;;;;;33.95;21.52;;;;;;;;;;6269389;28;20073;-71
2022/03/16 03:31:43;;;;;;;39.30;23.52;;;;;;;;;;6267081;28;20105;-72
2022/03/16 03:34:47;;;;;;;32.80;22.20;;;;;;;;;;6265381;28;20041;-71
2022/03/16 03:37:51;;;;;;;36.03;21.90;;;;;;;;;;6260633;28;20053;-72
2022/03/16 03:40:54;;;;;;;37.87;22.93;;;;;;;;;;6254991;28;20050;-72
2022/03/16 03:43:55;;;;;;;37.92;22.42;;;;;;;;;;6252361;28;20502;-71
2022/03/16 03:46:57;;;;;;;35.83;22.60;;;;;;;;;;6248606;28;20128;-71
2022/03/16 03:49:58;;;;;;;35.30;22.48;;;;;;;;;;6266986;28;20106;-72
2022/03/16 03:53:00;;;;;;;40.63;22.67;;;;;;;;;;6283581;28;20045;-70
2022/03/16 03:56:03;;;;;;;38.17;23.17;;;;;;;;;;6280088;28;20139;-71
2022/03/16 03:59:05;;;;;;;40.08;23.65;;;;;;;;;;6276140;28;20045;-71
2022/03/16 04:02:06;;;;;;;37.20;23.85;;;;;;;;;;6273484;28;20489;-71
2022/03/16 04:05:08;;;;;;;39.90;23.88;;;;;;;;;;6270769;28;20170;-72
2022/03/16 04:08:10;;;;;;;40.00;23.20;;;;;;;;;;6269778;28;20681;-72
2022/03/16 04:11:13;;;;;;;38.40;23.83;;;;;;;;;;6270585;28;21006;-71
2022/03/16 04:14:16;;;;;;;35.05;22.73;;;;;;;;;;6265894;28;20176;-71
2022/03/16 04:17:17;;;;;;;37.97;23.65;;;;;;;;;;6265497;28;20529;-72
2022/03/16 04:20:19;;;;;;;38.20;23.52;;;;;;;;;;6255610;28;20910;-71
2022/03/16 04:23:20;;;;;;;38.58;23.42;;;;;;;;;;6253121;28;20063;-71
2022/03/16 04:26:23;;;;;;;38.00;23.77;;;;;;;;;;6257329;28;20098;-71
2022/03/16 04:29:25;;;;;;;37.05;23.20;;;;;;;;;;6286145;28;20097;-71
2022/03/16 04:32:26;;;;;;;41.85;24.10;;;;;;;;;;6280121;28;20052;-72
2022/03/16 04:35:28;;;;;;;43.30;25.42;;;;;;;;;;6280056;28;20459;-69
2022/03/16 04:38:29;;;;;;;36.05;24.13;;;;;;;;;;6275487;28;20465;-72
2022/03/16 04:41:32;;;;;;;41.15;24.30;;;;;;;;;;6275443;28;20143;-72
2022/03/16 04:44:34;;;;;;;37.70;23.30;;;;;;;;;;6272458;28;20509;-72
2022/03/16 04:47:35;;;;;;;42.00;23.77;;;;;;;;;;6269046;28;20670;-72
2022/03/16 04:50:37;;;;;;;38.22;23.30;;;;;;;;;;6262525;28;20041;-71
2022/03/16 04:53:39;;;;;;;36.83;22.67;;;;;;;;;;6260526;28;20044;-71
2022/03/16 04:56:42;;;;;;;39.63;22.85;;;;;;;;;;6259328;28;20122;-70
2022/03/16 04:59:43;;;;;;;35.85;23.02;;;;;;;;;;6254136;28;20107;-71
2022/03/16 05:02:45;;;;;;;34.60;21.52;;;;;;;;;;6272233;28;20619;-71
2022/03/16 05:05:47;;;;;;;33.03;20.27;;;;;;;;;;6267881;28;20383;-72
2022/03/16 05:08:50;;;;;;;31.75;20.65;;;;;;;;;;6276248;28;20048;-71
2022/03/16 05:11:53;;;;;;;31.30;19.08;;;;;;;;;;6286486;28;20068;-70
2022/03/16 05:14:54;;;;;;;31.63;19.83;;;;;;;;;;6280090;28;20048;-71
2022/03/16 05:17:56;;;;;;;32.97;18.77;;;;;;;;;;6276614;28;20079;-72
2022/03/16 05:20:57;;;;;;;30.33;18.23;;;;;;;;;;6272617;28;20044;-70
2022/03/16 05:23:59;;;;;;;30.92;18.30;;;;;;;;;;6270777;28;20064;-70
2022/03/16 05:27:02;;;;;;;29.65;18.00;;;;;;;;;;6264250;28;20518;-71
2022/03/16 05:30:05;;;;;;;29.47;17.97;;;;;;;;;;6263649;28;20049;-72
2022/03/16 05:33:07;;;;;;;30.48;18.05;;;;;;;;;;6255002;28;20559;-72
2022/03/16 05:36:08;;;;;;;30.73;18.05;;;;;;;;;;6263251;28;20229;-72
2022/03/16 05:39:10;;;;;;;25.58;16.88;;;;;;;;;;6274160;28;20127;-71
2022/03/16 05:42:13;;;;;;;23.95;15.93;;;;;;;;;;6265764;28;20098;-72
2022/03/16 05:45:15;;;;;;;24.77;15.57;;;;;;;;;;6263852;28;20127;-72
2022/03/16 05:48:17;;;;;;;22.40;15.40;;;;;;;;;;6276458;28;20071;-71
2022/03/16 05:51:18;;;;;;;22.33;13.68;;;;;;;;;;6280960;28;20044;-71
2022/03/16 05:54:20;;;;;;;24.60;14.88;;;;;;;;;;6279518;28;20322;-72
2022/03/16 05:57:23;;;;;;;20.38;13.25;;;;;;;;;;6274981;28;20053;-72
2022/03/16 06:00:25;;;;;;;23.88;14.13;;;;;;;;;;6270617;28;20171;-72
2022/03/16 06:03:26;;;;;;;23.77;15.73;;;;;;;;;;6266164;28;20105;-72
2022/03/16 06:06:29;;;;;;;27.05;16.55;;;;;;;;;;6262363;28;20132;-66
2022/03/16 06:09:31;;;;;;;33.67;15.93;;;;;;;;;;6260774;28;20052;-68
2022/03/16 06:12:34;;;;;;;29.25;16.40;;;;;;;;;;6273470;28;20506;-68
2022/03/16 06:15:40;;;;;;;24.75;16.05;;;;;;;;;;6274113;28;20110;-66
2022/03/16 06:18:41;;;;;;;29.95;16.50;;;;;;;;;;6267615;28;20497;-68
2022/03/16 06:21:43;;;;;;;23.98;16.05;;;;;;;;;;6266315;28;20745;-71
2022/03/16 06:24:44;;;;;;;27.35;16.65;;;;;;;;;;6264570;28;20103;-72
2022/03/16 06:27:47;;;;;;;25.83;16.13;;;;;;;;;;6267398;28;20052;-71
2022/03/16 06:30:49;;;;;;;32.38;17.77;;;;;;;;;;6276442;28;20118;-71
2022/03/16 06:33:51;;;;;;;27.45;15.85;;;;;;;;;;6270854;28;20133;-71
2022/03/16 06:36:52;;;;;;;32.45;17.55;;;;;;;;;;6267794;28;20171;-70
2022/03/16 06:39:54;;;;;;;26.23;15.77;;;;;;;;;;6262757;28;20136;-70
2022/03/16 06:42:58;;;;;;;28.67;17.77;;;;;;;;;;6259697;28;20171;-70
2022/03/16 06:46:00;;;;;;;;;;;;;;;;;;6269439;28;20095;-70
2022/03/16 06:49:01;;;;;;;29.00;18.13;;;;;;;;;;6278284;28;20011;-69
2022/03/16 06:52:04;;;;;;;36.10;18.92;;;;;;;;;;6273901;28;20128;-70
2022/03/16 06:55:06;;;;;;;30.10;18.92;;;;;;;;;;6270180;28;20122;-70
2022/03/16 06:58:09;;;;;;;29.77;19.48;;;;;;;;;;6266467;28;20315;-70
2022/03/16 07:01:11;;;;;;;32.88;20.00;;;;;;;;;;6259813;28;20052;-70
2022/03/16 07:04:12;;;;;;;32.50;19.98;;;;;;;;;;6255317;28;20452;-70
2022/03/16 07:07:14;;;;;;;34.90;20.75;;;;;;;;;;6255118;28;20492;-70
2022/03/16 07:10:15;;;;;;;35.70;20.70;;;;;;;;;;6275278;28;20125;-71
2022/03/16 07:13:18;;;;;;;31.65;20.40;;;;;;;;;;6270814;28;20170;-70
2022/03/16 07:16:20;;;;;;;33.67;20.83;;;;;;;;;;6264186;28;20083;-70
2022/03/16 07:19:21;;;;;;;33.38;21.13;;;;;;;;;;6263016;28;20049;-72
2022/03/16 07:22:23;;;;;;;35.05;20.75;;;;;;;;;;6277145;28;20053;-70
2022/03/16 07:25:24;;;;;;;35.75;22.27;;;;;;;;;;6275217;28;20048;-71
2022/03/16 07:28:27;;;;;;;34.63;20.75;;;;;;;;;;6274087;28;20055;-70
2022/03/16 07:31:29;;;;;;;38.88;21.77;;;;;;;;;;6268670;28;20045;-72
2022/03/16 07:34:30;;;;;;;41.05;21.00;;;;;;;;;;6268823;28;20089;-73
2022/03/16 07:37:32;;;;;;;33.88;21.20;;;;;;;;;;6264992;28;20049;-70
2022/03/16 07:40:35;;;;;;;42.65;23.08;;;;;;;;;;6261790;28;20672;-71
2022/03/16 07:43:38;;;;;;;36.85;22.98;;;;;;;;;;6256559;28;20058;-71
2022/03/16 07:46:39;;;;;;;37.83;22.92;;;;;;;;;;6254750;28;20087;-70
2022/03/16 07:49:41;;;;;;;36.28;22.75;;;;;;;;;;6267753;28;20587;-71
2022/03/16 07:52:43;;;;;;;34.65;21.88;;;;;;;;;;6266502;28;20530;-71
2022/03/16 07:55:45;;;;;;;39.78;22.88;;;;;;;;;;6272150;28;20191;-71
2022/03/16 07:58:48;;;;;;;39.13;23.25;;;;;;;;;;6280448;28;20108;-71
2022/03/16 08:01:50;;;;;;;41.47;23.05;;;;;;;;;;6280648;28;20404;-71
2022/03/16 08:04:51;;;;;;;36.30;21.73;;;;;;;;;;6275162;28;20488;-69
2022/03/16 08:07:53;;;;;;;39.75;22.73;;;;;;;;;;6272706;28;20187;-69
2022/03/16 08:10:54;;;;;;;33.17;22.23;;;;;;;;;;6267603;28;20182;-71
2022/03/16 08:13:57;;;;;;;37.25;21.90;;;;;;;;;;6268853;28;20053;-69
2022/03/16 08:16:59;;;;;;;36.92;22.65;;;;;;;;;;6261464;28;20056;-70
2022/03/16 08:20:00;;;;;;;36.92;21.45;;;;;;;;;;6253737;28;20501;-71
2022/03/16 08:23:02;;;;;;;38.35;22.77;;;;;;;;;;6252807;28;20144;-70
2022/03/16 08:26:03;;;;;;;37.95;23.10;;;;;;;;;;6253224;28;20054;-70
2022/03/16 08:29:07;;;;;;;38.38;21.52;;;;;;;;;;6263497;28;20135;-71
2022/03/16 08:32:09;;;;;;;39.45;23.23;;;;;;;;;;6280630;28;20052;-70
2022/03/16 08:35:11;;;;;;;38.40;23.70;;;;;;;;;;6282054;28;20097;-71
2022/03/16 08:38:13;;;;;;;35.67;21.95;;;;;;;;;;6277951;28;20044;-70
2022/03/16 08:41:14;;;;;;;39.63;24.00;;;;;;;;;;6271824;28;20135;-70
2022/03/16 08:44:17;;;;;;;35.75;22.42;;;;;;;;;;6267200;28;20173;-71
2022/03/16 08:47:20;;;;;;;35.20;23.15;;;;;;;;;;6262184;28;20755;-71
2022/03/16 08:50:22;;;;;;;36.27;23.67;;;;;;;;;;6264214;28;20052;-70
2022/03/16 08:53:24;;;;;;;39.53;24.58;;;;;;;;;;6266633;28;20080;-71
2022/03/16 08:56:26;;;;;;;39.40;23.40;;;;;;;;;;6266311;28;20046;-70
2022/03/16 08:59:29;;;;;;;37.60;23.30;;;;;;;;;;6258965;28;20112;-70
2022/03/16 09:02:30;;;;;;;43.40;24.92;;;;;;;;;;6251970;28;20050;-71
2022/03/16 09:05:32;;;;;;;42.35;25.13;;;;;;;;;;6259172;28;20088;-70
2022/03/16 09:08:34;;;;;;;39.42;25.55;;;;;;;;;;6277013;28;20044;-71
2022/03/16 09:11:35;;;;;;;39.45;25.38;;;;;;;;;;6272480;28;20053;-70
2022/03/16 09:14:38;;;;;;;40.97;25.10;;;;;;;;;;6272209;28;20131;-70
2022/03/16 09:17:40;;;;;;;40.15;25.65;;;;;;;;;;6268512;28;20044;-70
2022/03/16 09:20:41;;;;;;;41.90;25.63;;;;;;;;;;6266489;28;20063;-71
2022/03/16 09:23:43;;;;;;;47.10;26.83;;;;;;;;;;6269937;28;20049;-70
2022/03/16 09:26:45;;;;;;;42.35;25.60;;;;;;;;;;6262880;28;20131;-71
2022/03/16 09:29:48;;;;;;;41.30;25.73;;;;;;;;;;6266157;28;20168;-71
2022/03/16 09:32:49;;;;;;;40.28;25.38;;;;;;;;;;6266887;28;20037;-70
2022/03/16 09:35:51;;;;;;;41.53;25.70;;;;;;;;;;6266993;28;20049;-70
2022/03/16 09:38:55;;;;;;;39.15;24.88;;;;;;;;;;6256193;28;20056;-70
2022/03/16 09:41:57;;;;;;;;;;;;;;;;;;6269239;28;20052;-70
2022/03/16 09:45:02;;;;;;;43.35;25.58;;;;;;;;;;6266142;28;20032;-70
2022/03/16 09:48:03;;;;;;;45.55;25.30;;;;;;;;;;6269539;28;20437;-70
2022/03/16 09:51:05;;;;;;;48.40;27.75;;;;;;;;;;6281350;28;20122;-71
2022/03/16 09:54:07;;;;;;;42.35;26.65;;;;;;;;;;6268017;28;20077;-71
2022/03/16 09:57:08;;;;;;;44.47;26.48;;;;;;;;;;6266351;28;20053;-72
2022/03/16 10:00:13;;;;;;;44.40;27.50;;;;;;;;;;6262342;28;20234;-71
2022/03/16 10:03:16;;;;;;;46.80;29.30;;;;;;;;;;6261697;28;20053;-71
2022/03/16 10:06:18;;;;;;;44.78;28.15;;;;;;;;;;6256874;28;20484;-72
2022/03/16 10:16:11;;;;;;;40.08;26.83;;;;;;;;;;6263817;28;20128;-71
2022/03/16 10:19:13;;;;;;;39.05;25.63;;;;;;;;;;6265678;28;20048;-70
2022/03/16 10:22:22;;;;;;;44.88;28.40;;;;;;;;;;6266681;28;20125;-70
2022/03/16 10:25:24;;;;;;;46.70;28.70;;;;;;;;;;6263279;28;20041;-70
2022/03/16 10:28:27;;;;;;;44.03;26.63;;;;;;;;;;6270343;28;20053;-70
2022/03/16 10:31:31;;;;;;;;;;;;;;;;;;6279245;28;20509;-70
2022/03/16 10:34:33;;;;;;;44.13;26.85;;;;;;;;;;6273848;28;20062;-71
2022/03/16 10:37:36;;;;;;;48.35;27.83;;;;;;;;;;6267403;28;20045;-70
2022/03/16 10:40:38;;;;;;;46.88;28.38;;;;;;;;;;6261470;28;20052;-71
2022/03/16 10:47:01;;;;;;;39.92;27.05;;;;;;;;;;6257141;28;20119;-71
2022/03/16 10:50:05;;;;;;;41.22;27.10;;;;;;;;;;6263940;28;20044;-70
2022/03/16 10:53:07;;;;;;;44.08;27.88;;;;;;;;;;6276261;28;20041;-71
2022/03/16 10:56:09;;;;;;;40.92;27.90;;;;;;;;;;6270913;28;20059;-70
2022/03/16 10:59:11;;;;;;;39.00;26.75;;;;;;;;;;6268799;28;20571;-71
2022/03/16 11:02:15;;;;;;;42.45;25.95;;;;;;;;;;6263317;28;20087;-71
2022/03/16 11:05:18;;;;;;;34.50;23.83;;;;;;;;;;6263832;28;20054;-71
2022/03/16 11:08:20;;;;;;;35.25;23.30;;;;;;;;;;6268638;28;20258;-70
2022/03/16 11:14:41;;;;;;;35.58;23.58;;;;;;;;;;6271951;28;20527;-70
2022/03/16 11:17:44;;;;;;;34.20;22.75;;;;;;;;;;6269075;28;20134;-70
2022/03/16 11:20:47;;;;;;;38.10;24.37;;;;;;;;;;6260071;28;20124;-71
2022/03/16 11:27:23;;;;;;;34.80;23.23;;;;;;;;;;6268234;28;20508;-70
2022/03/16 11:30:29;;;;;;;37.63;23.05;;;;;;;;;;6271878;28;20128;-70
2022/03/16 11:33:33;;;;;;;36.38;22.67;;;;;;;;;;6262751;28;21658;-69
2022/03/16 11:36:38;;;;;;;32.95;22.88;;;;;;;;;;6263696;28;20047;-71
2022/03/16 11:39:42;;;;;;;35.92;22.70;;;;;;;;;;6262403;28;20607;-70
2022/03/16 11:43:15;;;;;;;33.67;22.45;;;;;;;;;;6264893;28;20053;-71
2022/03/16 11:46:28;;;;;;;37.45;22.08;;;;;;;;;;6263340;28;20048;-70
2022/03/16 11:49:31;;;;;;;32.50;21.50;;;;;;;;;;6264889;28;20041;-70
2022/03/16 11:53:13;;;;;;;35.20;22.23;;;;;;;;;;6263791;28;20107;-71
2022/03/16 11:56:21;;;;;;;34.40;20.63;;;;;;;;;;6254492;28;20049;-71
2022/03/16 11:59:31;;;;;;;36.60;20.98;;;;;;;;;;6259053;28;20126;-69
2022/03/16 12:02:33;;;;;;;30.90;20.35;;;;;;;;;;6264186;28;20050;-73
2022/03/16 12:05:59;;;;;;;38.45;19.98;;;;;;;;;;6266855;28;20131;-72
2022/03/16 12:09:03;;;;;;;22.92;16.20;;;;;;;;;;6260117;28;20064;-71
2022/03/16 12:15:34;;;;;;;24.25;16.80;;;;;;;;;;6259702;28;20046;-71
2022/03/16 12:18:40;;;;;;;23.13;16.33;;;;;;;;;;6262117;28;20044;-70
2022/03/16 12:21:44;;;;;;;26.00;15.90;;;;;;;;;;6256241;28;20121;-68
2022/03/16 12:31:35;;;;;;;18.70;13.85;;;;;;;;;;6269570;28;20044;-70
2022/03/16 12:34:36;;;;;;;17.48;11.57;;;;;;;;;;6272109;28;20045;-72
2022/03/16 12:37:50;;;;;;;18.27;12.65;;;;;;;;;;6272595;28;20506;-70
2022/03/16 12:44:12;;;;;;;13.75;8.77;;;;;;;;;;6273033;28;20172;-69
2022/03/16 12:47:18;;;;;;;13.52;9.05;;;;;;;;;;6271825;28;20124;-72
2022/03/16 12:50:21;;;;;;;10.63;8.57;;;;;;;;;;6263711;28;20061;-68
2022/03/16 12:53:45;;;;;;;17.23;11.67;;;;;;;;;;6264334;28;20056;-70
2022/03/16 12:56:50;;;;;;;16.98;11.75;;;;;;;;;;6261712;28;20045;-70
2022/03/16 12:59:53;;;;;;;14.88;11.20;;;;;;;;;;6263088;28;20206;-72
2022/03/16 13:02:54;;;;;;;15.98;10.80;;;;;;;;;;6251551;28;20048;-70
2022/03/16 13:05:56;;;;;;;12.90;9.60;;;;;;;;;;6252949;28;20075;-69
2022/03/16 13:08:59;;;;;;;15.18;10.05;;;;;;;;;;6267661;28;20132;-70
2022/03/16 13:12:02;;;;;;;16.25;9.18;;;;;;;;;;6272510;28;20420;-71
2022/03/16 13:15:04;;;;;;;14.82;9.40;;;;;;;;;;6279732;28;20046;-70
2022/03/16 13:18:06;;;;;;;14.43;9.18;;;;;;;;;;6273083;28;20040;-71
2022/03/16 13:21:22;;;;;;;13.48;8.15;;;;;;;;;;6275333;28;20124;-70
2022/03/16 13:24:25;;;;;;;14.32;10.00;;;;;;;;;;6274374;28;20501;-73
2022/03/16 13:27:33;;;;;;;12.23;9.15;;;;;;;;;;6268599;28;20567;-74
2022/03/16 13:30:34;;;;;;;14.02;8.60;;;;;;;;;;6269124;28;20048;-74
2022/03/16 13:33:36;;;;;;;12.73;8.75;;;;;;;;;;6264721;28;20098;-73
2022/03/16 13:36:38;;;;;;;12.43;8.68;;;;;;;;;;6262135;28;20284;-72
2022/03/16 13:39:56;;;;;;;15.32;9.52;;;;;;;;;;6260763;28;20175;-71
2022/03/16 13:43:02;;;;;;;12.00;9.02;;;;;;;;;;6255243;28;20045;-71
2022/03/16 13:46:03;;;;;;;15.27;8.82;;;;;;;;;;6265923;28;20052;-72
2022/03/16 13:49:15;;;;;;;15.05;10.15;;;;;;;;;;6276653;28;20055;-71
2022/03/16 13:52:19;;;;;;;18.63;10.50;;;;;;;;;;6283716;28;20058;-72
2022/03/16 13:55:23;;;;;;;14.35;9.43;;;;;;;;;;6282131;28;20057;-74
2022/03/16 13:58:26;;;;;;;14.65;9.75;;;;;;;;;;6278004;28;20056;-71
2022/03/16 14:01:30;;;;;;;16.37;10.33;;;;;;;;;;6263469;28;20262;-71
2022/03/16 14:04:32;;;;;;;13.90;9.73;;;;;;;;;;6270190;28;20470;-72
2022/03/16 14:07:39;;;;;;;17.13;9.82;;;;;;;;;;6267387;28;20187;-72
2022/03/16 14:10:42;;;;;;;14.38;9.73;;;;;;;;;;6265658;28;20049;-73
2022/03/16 14:13:44;;;;;;;15.00;9.02;;;;;;;;;;6260326;28;20132;-72
2022/03/16 14:16:47;;;;;;;11.95;9.00;;;;;;;;;;6261342;28;20084;-72
2022/03/16 14:19:48;;;;;;;10.65;7.88;;;;;;;;;;6260395;28;20044;-72
2022/03/16 14:22:52;;;;;;;18.98;8.85;;;;;;;;;;6274301;28;20059;-72
2022/03/16 14:25:57;;;;;;;14.63;9.45;;;;;;;;;;6266828;28;20072;-72
2022/03/16 14:28:58;;;;;;;15.35;10.20;;;;;;;;;;6275907;28;20044;-71
2022/03/16 14:32:00;;;;;;;16.10;10.20;;;;;;;;;;6277878;28;20052;-72
2022/03/16 14:35:01;;;;;;;12.70;9.02;;;;;;;;;;6272771;28;20049;-72
2022/03/16 14:38:05;;;;;;;15.88;9.25;;;;;;;;;;6267192;28;20131;-72
2022/03/16 14:41:08;;;;;;;13.73;8.32;;;;;;;;;;6271921;28;20139;-71
2022/03/16 14:44:10;;;;;;;14.48;7.07;;;;;;;;;;6262723;28;20049;-71
2022/03/16 14:47:11;;;;;;;12.18;7.38;;;;;;;;;;6263415;28;20083;-72
2022/03/16 14:50:13;;;;;;;10.43;6.72;;;;;;;;;;6258580;28;20129;-72
2022/03/16 14:53:15;;;;;;;13.20;8.30;;;;;;;;;;6255992;28;20064;-71
2022/03/16 14:56:18;;;;;;;12.40;8.48;;;;;;;;;;6270531;28;20574;-70
2022/03/16 14:59:19;;;;;;;12.43;8.40;;;;;;;;;;6270306;28;20057;-69
2022/03/16 15:02:21;;;;;;;12.95;7.40;;;;;;;;;;6263517;28;20124;-71
2022/03/16 15:05:23;;;;;;;13.68;7.18;;;;;;;;;;6262976;28;20517;-69
2022/03/16 15:08:25;;;;;;;11.82;6.78;;;;;;;;;;6269760;28;20179;-70
2022/03/16 15:11:28;;;;;;;8.95;6.00;;;;;;;;;;6268986;28;20083;-73
2022/03/16 15:14:30;;;;;;;9.97;5.40;;;;;;;;;;6270644;28;20515;-70
2022/03/16 15:17:31;;;;;;;8.38;5.10;;;;;;;;;;6265401;28;20187;-72
2022/03/16 15:20:33;;;;;;;10.27;5.57;;;;;;;;;;6263857;28;20045;-72
2022/03/16 15:23:34;;;;;;;8.68;5.30;;;;;;;;;;6259373;28;20195;-70
2022/03/16 15:26:39;;;;;;;12.32;5.78;;;;;;;;;;6256808;28;20053;-72
2022/03/16 15:29:41;;;;;;;13.70;5.85;;;;;;;;;;6264283;28;20048;-72
2022/03/16 15:32:43;;;;;;;9.20;5.55;;;;;;;;;;6273027;28;20045;-71
2022/03/16 15:35:45;;;;;;;11.98;5.30;;;;;;;;;;6266342;28;20041;-73
2022/03/16 15:38:46;;;;;;;12.20;5.15;;;;;;;;;;6264201;28;20084;-73
2022/03/16 15:45:10;;;;;;;12.57;5.63;;;;;;;;;;6260032;28;20049;-71
2022/03/16 15:48:12;;;;;;;9.07;6.15;;;;;;;;;;6265103;28;20128;-72
2022/03/16 15:51:14;;;;;;;7.47;4.88;;;;;;;;;;6272689;28;20107;-72
2022/03/16 15:54:16;;;;;;;12.88;4.95;;;;;;;;;;6272534;28;20266;-72
2022/03/16 15:57:19;;;;;;;10.63;5.85;;;;;;;;;;6265747;28;20550;-71
2022/03/16 16:00:20;;;;;;;11.20;5.27;;;;;;;;;;6261441;28;20136;-71
2022/03/16 16:03:23;;;;;;;9.25;5.72;;;;;;;;;;6257533;28;20576;-71
2022/03/16 16:06:28;;;;;;;8.98;5.15;;;;;;;;;;6273658;28;20045;-70
2022/03/16 16:09:30;;;;;;;13.80;5.93;;;;;;;;;;6269848;28;20480;-69
2022/03/16 16:12:34;;;;;;;9.57;5.72;;;;;;;;;;6269675;28;20153;-69
2022/03/16 16:15:37;;;;;;;7.80;4.80;;;;;;;;;;6260903;28;20718;-69
2022/03/16 16:18:39;;;;;;;7.70;4.88;;;;;;;;;;6259205;28;20057;-70
2022/03/16 16:21:40;;;;;;;13.05;6.10;;;;;;;;;;6256848;28;20087;-71
2022/03/16 16:24:42;;;;;;;13.10;5.40;;;;;;;;;;6250193;28;20045;-70
2022/03/16 16:27:46;;;;;;;8.90;5.40;;;;;;;;;;6256968;28;20060;-71
2022/03/16 16:30:48;;;;;;;10.38;5.05;;;;;;;;;;6268666;28;20408;-71
2022/03/16 16:33:50;;;;;;;9.68;4.82;;;;;;;;;;6263444;28;20595;-71
2022/03/16 16:36:53;;;;;;;14.63;6.20;;;;;;;;;;6256582;28;20045;-70
2022/03/16 16:39:54;;;;;;;9.55;5.72;;;;;;;;;;6270867;28;20044;-70
2022/03/16 16:43:16;;;;;;;12.25;6.57;;;;;;;;;;6277421;28;20045;-69
2022/03/16 16:46:18;;;;;;;11.00;7.07;;;;;;;;;;6275463;28;20056;-69
2022/03/16 16:49:19;;;;;;;16.40;7.47;;;;;;;;;;6270451;28;20049;-69
2022/03/16 16:52:21;;;;;;;18.25;8.75;;;;;;;;;;6267533;28;20047;-69
2022/03/16 16:55:23;;;;;;;13.95;8.15;;;;;;;;;;6261401;28;20226;-70
2022/03/16 16:58:26;;;;;;;18.20;8.48;;;;;;;;;;6257424;28;20058;-69
2022/03/16 17:01:28;;;;;;;24.47;9.30;;;;;;;;;;6258244;28;20077;-69
2022/03/16 17:04:30;;;;;;;13.15;7.68;;;;;;;;;;6254495;28;20195;-70
2022/03/16 17:07:32;;;;;;;17.33;8.20;;;;;;;;;;6259723;28;20041;-70
2022/03/16 17:10:35;;;;;;;15.07;8.35;;;;;;;;;;6267082;28;20143;-69
2022/03/16 17:13:38;;;;;;;16.25;8.63;;;;;;;;;;6266523;28;20055;-71
2022/03/16 17:16:42;;;;;;;16.57;9.30;;;;;;;;;;6271213;28;20076;-70
2022/03/16 17:19:44;;;;;;;14.43;8.52;;;;;;;;;;6279516;28;20135;-70
2022/03/16 17:22:48;;;;;;;17.17;8.88;;;;;;;;;;6277651;28;20045;-70
2022/03/16 17:25:49;;;;;;;13.65;8.13;;;;;;;;;;6270575;28;20048;-70
2022/03/16 17:28:53;;;;;;;18.83;8.90;;;;;;;;;;6273028;28;20132;-70
2022/03/16 17:31:54;;;;;;;19.77;8.38;;;;;;;;;;6265647;28;20703;-70
2022/03/16 17:34:56;;;;;;;20.25;8.77;;;;;;;;;;6263925;28;20045;-70
2022/03/16 17:37:58;;;;;;;15.98;9.05;;;;;;;;;;6259715;28;20666;-69
2022/03/16 17:47:35;;;;;;;16.27;8.73;;;;;;;;;;6254938;28;20045;-70
2022/03/16 17:50:40;;;;;;;18.02;9.13;;;;;;;;;;6283994;28;20413;-69
2022/03/16 17:53:41;;;;;;;21.30;8.50;;;;;;;;;;6286030;28;20050;-70
2022/03/16 17:56:45;;;;;;;14.93;8.18;;;;;;;;;;6278400;28;20477;-70
2022/03/16 17:59:49;;;;;;;16.75;9.13;;;;;;;;;;6276587;28;20188;-69
2022/03/16 18:02:50;;;;;;;16.87;8.27;;;;;;;;;;6269677;28;20500;-70
2022/03/16 18:05:52;;;;;;;18.13;8.63;;;;;;;;;;6270981;28;20425;-70
2022/03/16 18:08:53;;;;;;;16.75;10.02;;;;;;;;;;6265839;28;20105;-71
2022/03/16 18:15:15;;;;;;;15.45;9.13;;;;;;;;;;6259863;28;20132;-70
2022/03/16 18:18:17;;;;;;;20.70;10.00;;;;;;;;;;6259152;28;20176;-70
2022/03/16 18:21:18;;;;;;;21.23;9.60;;;;;;;;;;6254560;28;20237;-71
2022/03/16 18:24:20;;;;;;;16.88;8.85;;;;;;;;;;6260741;28;20131;-70
2022/03/16 18:27:21;;;;;;;18.30;10.32;;;;;;;;;;6267020;28;20044;-71
2022/03/16 18:30:24;;;;;;;107.32;58.15;;;;;;;;;;6281280;28;20455;-71
2022/03/16 18:33:27;;;;;;;48.88;25.90;;;;;;;;;;6276206;28;20127;-74